createdAt,value
2019-04-27T00:01:12.028Z,95504.00
2019-04-27T00:03:56.551Z,95513.00
2019-04-27T00:06:27.390Z,95497.00
2019-04-27T00:09:03.422Z,95490.00
2019-04-27T00:11:42.201Z,95488.00
2019-04-27T00:14:15.055Z,95490.00
2019-04-27T00:17:03.908Z,95484.00
2019-04-27T00:19:46.665Z,95481.00
2019-04-27T00:22:35.145Z,95477.00
2019-04-27T00:25:06.031Z,95484.00
2019-04-27T00:27:36.511Z,95489.00
2019-04-27T00:30:07.529Z,95488.00
2019-04-27T00:32:39.784Z,95483.00
2019-04-27T00:35:13.781Z,95483.00
2019-04-27T00:37:49.955Z,95473.00
2019-04-27T00:40:39.339Z,95480.00
2019-04-27T00:43:09.874Z,95482.00
2019-04-27T00:45:40.325Z,95486.00
2019-04-27T00:48:10.887Z,95487.00
2019-04-27T00:50:41.355Z,95475.00
2019-04-27T00:53:13.309Z,95469.00
2019-04-27T00:56:03.902Z,95470.00
2019-04-27T00:58:47.047Z,95466.00
2019-04-27T01:01:25.057Z,95478.00
2019-04-27T01:04:14.524Z,95477.00
2019-04-27T01:06:45.088Z,95468.00
2019-04-27T01:09:16.734Z,95464.00
2019-04-27T01:11:47.298Z,95459.00
2019-04-27T01:14:17.822Z,95463.00
2019-04-27T01:16:49.260Z,95462.00
2019-04-27T01:19:20.572Z,95462.00
2019-04-27T01:21:51.046Z,95465.00
2019-04-27T01:24:21.562Z,95472.00
2019-04-27T01:27:11.071Z,95466.00
2019-04-27T01:29:41.633Z,95471.00
2019-04-27T01:32:14.061Z,95473.00
2019-04-27T01:34:44.564Z,95479.00
2019-04-27T01:37:15.110Z,95481.00
2019-04-27T01:39:46.681Z,95479.00
2019-04-27T01:42:17.235Z,95478.00
2019-04-27T01:44:50.838Z,95483.00
2019-04-27T01:47:19.980Z,95480.00
2019-04-27T01:49:50.460Z,95482.00
2019-04-27T01:52:20.933Z,95493.00
2019-04-27T01:54:51.397Z,95489.00
2019-04-27T01:57:21.915Z,95493.00
2019-04-27T01:59:52.329Z,95491.00
2019-04-27T02:02:57.026Z,95488.00
2019-04-27T02:05:34.949Z,95480.00
2019-04-27T02:08:06.607Z,95478.00
2019-04-27T02:10:39.597Z,95486.00
2019-04-27T02:13:10.462Z,95481.00
2019-04-27T02:15:40.937Z,95486.00
2019-04-27T02:18:11.473Z,95486.00
2019-04-27T02:20:44.320Z,95479.00
2019-04-27T02:23:14.187Z,95473.00
2019-04-27T02:25:44.654Z,95476.00
2019-04-27T02:28:30.991Z,95480.00
2019-04-27T02:31:24.423Z,95478.00
2019-04-27T02:34:01.031Z,95476.00
2019-04-27T02:36:31.490Z,95474.00
2019-04-27T02:39:01.950Z,95469.00
2019-04-27T02:41:32.390Z,95475.00
2019-04-27T02:44:17.044Z,95472.00
2019-04-27T02:46:49.957Z,95466.00
2019-04-27T02:49:20.204Z,95469.00
2019-04-27T02:52:15.164Z,95464.00
2019-04-27T02:54:45.678Z,95467.00
2019-04-27T02:57:16.250Z,95471.00
2019-04-27T02:59:46.729Z,95463.00
2019-04-27T03:02:31.830Z,95462.00
2019-04-27T03:05:02.280Z,95458.00
2019-04-27T03:07:32.717Z,95470.00
2019-04-27T03:10:03.459Z,95468.00
2019-04-27T03:12:39.828Z,95454.00
2019-04-27T03:15:25.777Z,95463.00
2019-04-27T03:18:32.757Z,95464.00
2019-04-27T03:21:20.930Z,95463.00
2019-04-27T03:23:51.465Z,95449.00
2019-04-27T03:26:44.516Z,95454.00
2019-04-27T03:29:15.823Z,95458.00
2019-04-27T03:31:52.881Z,95458.00
2019-04-27T03:34:22.412Z,95465.00
2019-04-27T03:36:51.728Z,95467.00
2019-04-27T03:39:22.279Z,95466.00
2019-04-27T03:41:53.167Z,95463.00
2019-04-27T03:44:23.673Z,95466.00
2019-04-27T03:46:54.175Z,95459.00
2019-04-27T03:49:34.763Z,95453.00
2019-04-27T03:52:14.738Z,95467.00
2019-04-27T03:54:56.543Z,95469.00
2019-04-27T03:57:40.833Z,95460.00
2019-04-27T04:00:16.520Z,95460.00
2019-04-27T04:02:46.977Z,95459.00
2019-04-27T04:05:19.664Z,95463.00
2019-04-27T04:07:50.574Z,95445.00
2019-04-27T04:10:21.113Z,95462.00
2019-04-27T04:13:22.574Z,95454.00
2019-04-27T04:16:17.107Z,95464.00
2019-04-27T04:19:02.304Z,95453.00
2019-04-27T04:21:32.838Z,95463.00
2019-04-27T04:24:04.858Z,95458.00
2019-04-27T04:26:40.286Z,95454.00
2019-04-27T04:29:11.817Z,95464.00
2019-04-27T04:31:42.445Z,95465.00
2019-04-27T04:34:12.926Z,95467.00
2019-04-27T04:36:44.277Z,95462.00
2019-04-27T04:39:15.241Z,95460.00
2019-04-27T04:42:13.704Z,95465.00
2019-04-27T04:45:05.056Z,95460.00
2019-04-27T04:47:52.759Z,95462.00
2019-04-27T04:50:23.528Z,95462.00
2019-04-27T04:52:54.473Z,95463.00
2019-04-27T04:55:24.961Z,95461.00
2019-04-27T04:57:56.213Z,95468.00
2019-04-27T05:00:26.831Z,95465.00
2019-04-27T05:02:59.354Z,95465.00
2019-04-27T05:05:29.801Z,95463.00
2019-04-27T05:08:00.708Z,95466.00
2019-04-27T05:10:31.389Z,95473.00
2019-04-27T05:13:02.040Z,95467.00
2019-04-27T05:15:32.872Z,95468.00
2019-04-27T05:18:03.427Z,95467.00
2019-04-27T05:20:51.310Z,95470.00
2019-04-27T05:23:22.210Z,95482.00
2019-04-27T05:25:53.601Z,95490.00
2019-04-27T05:28:24.628Z,95485.00
2019-04-27T05:30:56.129Z,95483.00
2019-04-27T05:33:29.663Z,95475.00
2019-04-27T05:36:00.705Z,95478.00
2019-04-27T05:38:31.151Z,95473.00
2019-04-27T05:41:01.995Z,95480.00
2019-04-27T05:43:39.338Z,95472.00
2019-04-27T05:46:41.537Z,95479.00
2019-04-27T05:49:22.970Z,95474.00
2019-04-27T05:51:53.638Z,95475.00
2019-04-27T05:54:24.339Z,95472.00
2019-04-27T05:56:54.806Z,95479.00
2019-04-27T05:59:26.585Z,95474.00
2019-04-27T06:01:59.143Z,95475.00
2019-04-27T06:04:30.360Z,95480.00
2019-04-27T06:07:01.102Z,95484.00
2019-04-27T06:09:31.653Z,95485.00
2019-04-27T06:12:02.146Z,95475.00
2019-04-27T06:14:32.593Z,95495.00
2019-04-27T06:17:03.048Z,95496.00
2019-04-27T06:19:33.522Z,95502.00
2019-04-27T06:22:03.987Z,95491.00
2019-04-27T06:24:34.495Z,95493.00
2019-04-27T06:27:05.024Z,95492.00
2019-04-27T06:29:35.529Z,95490.00
2019-04-27T06:32:06.107Z,95489.00
2019-04-27T06:34:39.133Z,95497.00
2019-04-27T06:37:09.813Z,95502.00
2019-04-27T06:39:40.428Z,95503.00
2019-04-27T06:42:18.554Z,95493.00
2019-04-27T06:44:43.364Z,95488.00
2019-04-27T06:47:13.823Z,95497.00
2019-04-27T06:49:44.418Z,95487.00
2019-04-27T06:52:14.884Z,95500.00
2019-04-27T06:54:48.584Z,95489.00
2019-04-27T06:57:19.322Z,95490.00
2019-04-27T06:59:50.680Z,95480.00
2019-04-27T07:02:21.266Z,95488.00
2019-04-27T07:04:51.818Z,95478.00
2019-04-27T07:07:22.268Z,95491.00
2019-04-27T07:09:52.781Z,95486.00
2019-04-27T07:12:23.262Z,95490.00
2019-04-27T07:14:55.092Z,95497.00
2019-04-27T07:17:25.781Z,95488.00
2019-04-27T07:19:56.270Z,95487.00
2019-04-27T07:22:26.759Z,95485.00
2019-04-27T07:24:58.994Z,95486.00
2019-04-27T07:27:29.864Z,95486.00
2019-04-27T07:30:01.761Z,95484.00
2019-04-27T07:32:33.881Z,95480.00
2019-04-27T07:35:04.364Z,95475.00
2019-04-27T07:37:36.029Z,95480.00
2019-04-27T07:40:09.047Z,95476.00
2019-04-27T07:42:41.547Z,95475.00
2019-04-27T07:45:21.521Z,95485.00
2019-04-27T07:47:52.132Z,95484.00
2019-04-27T07:50:22.621Z,95472.00
2019-04-27T07:52:53.119Z,95477.00
2019-04-27T07:55:23.622Z,95464.00
2019-04-27T07:57:54.163Z,95467.00
2019-04-27T08:00:24.642Z,95463.00
2019-04-27T08:02:55.377Z,95466.00
2019-04-27T08:05:25.860Z,95469.00
2019-04-27T08:07:56.833Z,95464.00
2019-04-27T08:10:29.226Z,95464.00
2019-04-27T08:13:02.844Z,95462.00
2019-04-27T08:15:33.753Z,95467.00
2019-04-27T08:18:05.765Z,95453.00
2019-04-27T08:20:36.268Z,95472.00
2019-04-27T08:23:06.774Z,95463.00
2019-04-27T08:25:39.100Z,95461.00
2019-04-27T08:28:28.783Z,95463.00
2019-04-27T08:31:09.556Z,95467.00
2019-04-27T08:33:40.106Z,95465.00
2019-04-27T08:36:10.630Z,95454.00
2019-04-27T08:38:41.140Z,95453.00
2019-04-27T08:41:11.983Z,95460.00
2019-04-27T08:43:43.600Z,95449.00
2019-04-27T08:46:14.079Z,95438.00
2019-04-27T08:48:44.571Z,95442.00
2019-04-27T08:51:16.163Z,95440.00
2019-04-27T08:53:46.834Z,95439.00
2019-04-27T08:56:19.355Z,95435.00
2019-04-27T08:58:50.092Z,95438.00
2019-04-27T09:01:20.869Z,95444.00
2019-04-27T09:03:52.361Z,95435.00
2019-04-27T09:06:24.135Z,95438.00
2019-04-27T09:09:02.697Z,95425.00
2019-04-27T09:11:46.153Z,95426.00
2019-04-27T09:14:24.226Z,95419.00
2019-04-27T09:17:19.415Z,95415.00
2019-04-27T09:20:10.022Z,95413.00
2019-04-27T09:22:40.546Z,95415.00
2019-04-27T09:25:11.757Z,95404.00
2019-04-27T09:27:42.262Z,95412.00
2019-04-27T09:30:13.074Z,95404.00
2019-04-27T09:32:43.567Z,95407.00
2019-04-27T09:35:15.843Z,95410.00
2019-04-27T09:37:46.479Z,95398.00
2019-04-27T09:40:20.168Z,95404.00
2019-04-27T09:42:50.663Z,95402.00
2019-04-27T09:45:27.104Z,95391.00
2019-04-27T09:47:57.825Z,95403.00
2019-04-27T09:50:28.500Z,95384.00
2019-04-27T09:52:59.109Z,95388.00
2019-04-27T09:55:30.979Z,95391.00
2019-04-27T09:58:01.475Z,95378.00
2019-04-27T10:00:31.967Z,95376.00
2019-04-27T10:03:02.431Z,95375.00
2019-04-27T10:05:32.961Z,95369.00
2019-04-27T10:08:03.425Z,95376.00
2019-04-27T10:10:33.929Z,95365.00
2019-04-27T10:13:07.106Z,95361.00
2019-04-27T10:15:39.550Z,95366.00
2019-04-27T10:18:10.086Z,95369.00
2019-04-27T10:20:41.198Z,95371.00
2019-04-27T10:23:11.881Z,95371.00
2019-04-27T10:25:42.382Z,95367.00
2019-04-27T10:28:12.893Z,95370.00
2019-04-27T10:30:43.372Z,95375.00
2019-04-27T10:33:15.980Z,95366.00
2019-04-27T10:35:47.352Z,95373.00
2019-04-27T10:38:18.129Z,95369.00
2019-04-27T10:40:48.592Z,95362.00
2019-04-27T10:43:23.443Z,95365.00
2019-04-27T10:45:56.499Z,95355.00
2019-04-27T10:48:27.258Z,95350.00
2019-04-27T10:50:57.850Z,95358.00
2019-04-27T10:53:28.379Z,95352.00
2019-04-27T10:56:00.931Z,95351.00
2019-04-27T10:58:31.427Z,95351.00
2019-04-27T11:01:03.557Z,95336.00
2019-04-27T11:03:55.469Z,95342.00
2019-04-27T11:06:39.167Z,95341.00
2019-04-27T11:09:22.174Z,95337.00
2019-04-27T11:11:52.478Z,95332.00
2019-04-27T11:14:22.943Z,95326.00
2019-04-27T11:16:53.456Z,95329.00
2019-04-27T11:19:23.961Z,95330.00
2019-04-27T11:21:54.543Z,95330.00
2019-04-27T11:24:25.153Z,95327.00
2019-04-27T11:26:56.705Z,95328.00
2019-04-27T11:29:27.684Z,95318.00
2019-04-27T11:31:58.272Z,95314.00
2019-04-27T11:34:46.868Z,95322.00
2019-04-27T11:37:21.603Z,95308.00
2019-04-27T11:39:52.132Z,95302.00
2019-04-27T11:42:22.662Z,95299.00
2019-04-27T11:44:55.557Z,95293.00
2019-04-27T11:47:27.366Z,95299.00
2019-04-27T11:49:58.009Z,95309.00
2019-04-27T11:52:28.606Z,95309.00
2019-04-27T11:54:59.309Z,95314.00
2019-04-27T11:57:29.875Z,95306.00
2019-04-27T12:00:00.340Z,95299.00
2019-04-27T12:02:30.880Z,95293.00
2019-04-27T12:05:01.431Z,95291.00
2019-04-27T12:07:32.046Z,95284.00
2019-04-27T12:10:02.575Z,95315.00
2019-04-27T12:12:33.077Z,95320.00
2019-04-27T12:15:05.708Z,95317.00
2019-04-27T12:17:38.100Z,95304.00
2019-04-27T12:20:09.274Z,95313.00
2019-04-27T12:22:41.300Z,95302.00
2019-04-27T12:25:14.101Z,95307.00
2019-04-27T12:28:03.047Z,95310.00
2019-04-27T12:30:40.758Z,95297.00
2019-04-27T12:33:11.250Z,95308.00
2019-04-27T12:35:41.920Z,95307.00
2019-04-27T12:38:12.424Z,95320.00
2019-04-27T12:40:42.968Z,95299.00
2019-04-27T12:43:13.404Z,95318.00
2019-04-27T12:45:45.954Z,95323.00
2019-04-27T12:48:16.591Z,95315.00
2019-04-27T12:50:47.460Z,95322.00
2019-04-27T12:53:28.366Z,95315.00
2019-04-27T12:56:23.698Z,95323.00
2019-04-27T12:59:05.742Z,95317.00
2019-04-27T13:01:36.326Z,95317.00
2019-04-27T13:04:06.840Z,95312.00
2019-04-27T13:06:38.018Z,95313.00
2019-04-27T13:09:09.074Z,95304.00
2019-04-27T13:11:39.592Z,95303.00
2019-04-27T13:14:10.234Z,95306.00
2019-04-27T13:16:40.771Z,95299.00
2019-04-27T13:19:11.303Z,95305.00
2019-04-27T13:21:41.812Z,95296.00
2019-04-27T13:24:12.318Z,95291.00
2019-04-27T13:26:42.870Z,95293.00
2019-04-27T13:29:13.873Z,95290.00
2019-04-27T13:31:44.440Z,95299.00
2019-04-27T13:34:17.151Z,95286.00
2019-04-27T13:36:47.707Z,95294.00
2019-04-27T13:39:18.333Z,95292.00
2019-04-27T13:41:49.702Z,95286.00
2019-04-27T13:44:20.290Z,95301.00
2019-04-27T13:47:17.642Z,95284.00
2019-04-27T13:50:01.337Z,95308.00
2019-04-27T13:52:32.913Z,95319.00
2019-04-27T13:55:03.438Z,95295.00
2019-04-27T13:57:33.909Z,95287.00
2019-04-27T14:00:04.931Z,95311.00
2019-04-27T14:02:35.643Z,95282.00
2019-04-27T14:05:06.876Z,95267.00
2019-04-27T14:07:40.551Z,95275.00
2019-04-27T14:10:09.969Z,95250.00
2019-04-27T14:12:40.452Z,95250.00
2019-04-27T14:15:11.284Z,95252.00
2019-04-27T14:17:41.843Z,95251.00
2019-04-27T14:20:12.580Z,95240.00
2019-04-27T14:22:44.494Z,95238.00
2019-04-27T14:25:18.097Z,95244.00
2019-04-27T14:27:48.932Z,95247.00
2019-04-27T14:30:20.478Z,95232.00
2019-04-27T14:32:51.009Z,95251.00
2019-04-27T14:35:21.541Z,95250.00
2019-04-27T14:37:52.047Z,95252.00
2019-04-27T14:40:22.888Z,95261.00
2019-04-27T14:42:53.922Z,95246.00
2019-04-27T14:45:24.411Z,95243.00
2019-04-27T14:47:55.088Z,95245.00
2019-04-27T14:50:26.789Z,95227.00
2019-04-27T14:52:59.020Z,95235.00
2019-04-27T14:55:30.128Z,95242.00
2019-04-27T14:58:01.317Z,95239.00
2019-04-27T15:00:31.877Z,95224.00
2019-04-27T15:03:05.773Z,95232.00
2019-04-27T15:05:36.371Z,95221.00
2019-04-27T15:08:09.824Z,95236.00
2019-04-27T15:10:48.411Z,95226.00
2019-04-27T15:13:20.448Z,95226.00
2019-04-27T15:15:57.149Z,95212.00
2019-04-27T15:18:34.757Z,95219.00
2019-04-27T15:21:06.827Z,95219.00
2019-04-27T15:23:37.403Z,95216.00
2019-04-27T15:26:07.971Z,95208.00
2019-04-27T15:28:40.335Z,95211.00
2019-04-27T15:31:36.019Z,95219.00
2019-04-27T15:34:35.410Z,95218.00
2019-04-27T15:37:23.375Z,95211.00
2019-04-27T15:40:10.124Z,95207.00
2019-04-27T15:42:49.670Z,95210.00
2019-04-27T15:45:24.576Z,95218.00
2019-04-27T15:47:55.294Z,95213.00
2019-04-27T15:50:32.229Z,95214.00
2019-04-27T15:53:02.922Z,95214.00
2019-04-27T15:55:36.854Z,95210.00
2019-04-27T15:58:10.170Z,95211.00
2019-04-27T16:00:40.677Z,95203.00
2019-04-27T16:03:11.205Z,95208.00
2019-04-27T16:05:51.585Z,95201.00
2019-04-27T16:08:22.131Z,95205.00
2019-04-27T16:10:52.603Z,95197.00
2019-04-27T16:13:32.534Z,95188.00
2019-04-27T16:15:59.992Z,95194.00
2019-04-27T16:18:32.567Z,95194.00
2019-04-27T16:21:08.940Z,95190.00
2019-04-27T16:23:42.991Z,95178.00
2019-04-27T16:26:18.341Z,95183.00
2019-04-27T16:28:53.380Z,95197.00
2019-04-27T16:31:24.778Z,95209.00
2019-04-27T16:33:59.143Z,95204.00
2019-04-27T16:36:30.628Z,95193.00
2019-04-27T16:39:14.519Z,95193.00
2019-04-27T16:41:49.980Z,95187.00
2019-04-27T16:44:18.726Z,95201.00
2019-04-27T16:46:51.132Z,95197.00
2019-04-27T16:49:21.760Z,95197.00
2019-04-27T16:51:52.271Z,95205.00
2019-04-27T16:54:22.773Z,95202.00
2019-04-27T16:57:02.244Z,95207.00
2019-04-27T16:59:41.007Z,95197.00
2019-04-27T17:01:58.124Z,95191.00
2019-04-27T17:04:29.095Z,95194.00
2019-04-27T17:07:01.084Z,95193.00
2019-04-27T17:09:36.233Z,95195.00
2019-04-27T17:12:05.786Z,95192.00
2019-04-27T17:14:58.090Z,95204.00
2019-04-27T17:17:38.659Z,95194.00
2019-04-27T17:20:12.921Z,95198.00
2019-04-27T17:22:45.579Z,95198.00
2019-04-27T17:25:15.322Z,95180.00
2019-04-27T17:27:57.843Z,95195.00
2019-04-27T17:30:32.482Z,95190.00
2019-04-27T17:33:11.835Z,95190.00
2019-04-27T17:35:42.646Z,95197.00
2019-04-27T17:38:15.723Z,95189.00
2019-04-27T17:40:45.722Z,95193.00
2019-04-27T17:43:16.348Z,95193.00
2019-04-27T17:45:48.600Z,95194.00
2019-04-27T17:48:19.423Z,95204.00
2019-04-27T17:50:49.970Z,95208.00
2019-04-27T17:53:25.149Z,95208.00
2019-04-27T17:55:54.937Z,95236.00
2019-04-27T17:58:28.565Z,95220.00
2019-04-27T18:00:59.935Z,95236.00
2019-04-27T18:03:30.580Z,95252.00
2019-04-27T18:06:01.052Z,95245.00
2019-04-27T18:08:31.545Z,95248.00
2019-04-27T18:11:03.220Z,95245.00
2019-04-27T18:13:34.316Z,95248.00
2019-04-27T18:16:04.853Z,95260.00
2019-04-27T18:19:00.092Z,95265.00
2019-04-27T18:21:33.518Z,95274.00
2019-04-27T18:24:09.389Z,95287.00
2019-04-27T18:27:00.539Z,95295.00
2019-04-27T18:29:27.586Z,95316.00
2019-04-27T18:31:58.219Z,95329.00
2019-04-27T18:34:28.915Z,95340.00
2019-04-27T18:36:59.510Z,95339.00
2019-04-27T18:39:30.240Z,95361.00
2019-04-27T18:42:00.829Z,95359.00
2019-04-27T18:44:31.972Z,95359.00
2019-04-27T18:47:02.611Z,95364.00
2019-04-27T18:49:52.033Z,95367.00
2019-04-27T18:52:59.628Z,95391.00
2019-04-27T18:55:30.182Z,95415.00
2019-04-27T18:58:02.163Z,95435.00
2019-04-27T19:00:34.001Z,95434.00
2019-04-27T19:03:13.726Z,95441.00
2019-04-27T19:05:48.067Z,95445.00
2019-04-27T19:08:23.997Z,95453.00
2019-04-27T19:10:54.597Z,95463.00
2019-04-27T19:13:33.817Z,95469.00
2019-04-27T19:16:18.613Z,95482.00
2019-04-27T19:18:49.128Z,95487.00
2019-04-27T19:21:20.677Z,95484.00
2019-04-27T19:23:53.419Z,95487.00
2019-04-27T19:26:44.472Z,95492.00
2019-04-27T19:29:19.019Z,95497.00
2019-04-27T19:32:09.674Z,95507.00
2019-04-27T19:34:42.991Z,95519.00
2019-04-27T19:37:13.545Z,95505.00
2019-04-27T19:39:44.094Z,95508.00
2019-04-27T19:42:14.724Z,95509.00
2019-04-27T19:44:45.212Z,95506.00
2019-04-27T19:47:15.776Z,95508.00
2019-04-27T19:49:54.764Z,95513.00
2019-04-27T19:52:38.812Z,95526.00
2019-04-27T19:55:14.957Z,95538.00
2019-04-27T19:57:49.653Z,95525.00
2019-04-27T20:00:30.847Z,95522.00
2019-04-27T20:03:40.438Z,95522.00
2019-04-27T20:06:11.126Z,95516.00
2019-04-27T20:09:08.941Z,95519.00
2019-04-27T20:14:57.845Z,95513.00
2019-04-27T20:17:40.880Z,95518.00
2019-04-27T20:20:12.845Z,95526.00
2019-04-27T20:22:50.845Z,95510.00
2019-04-27T20:25:22.187Z,95512.00
2019-04-27T20:27:53.322Z,95514.00
2019-04-27T20:30:25.771Z,95517.00
2019-04-27T20:33:01.194Z,95512.00
2019-04-27T20:35:33.083Z,95524.00
2019-04-27T20:38:04.149Z,95517.00
2019-04-27T20:40:34.706Z,95514.00
2019-04-27T20:43:13.473Z,95521.00
2019-04-27T20:46:22.777Z,95519.00
2019-04-27T20:48:53.860Z,95531.00
2019-04-27T20:51:46.301Z,95522.00
2019-04-27T20:54:18.741Z,95533.00
2019-04-27T20:56:49.348Z,95533.00
2019-04-27T20:59:22.043Z,95545.00
2019-04-27T21:02:02.883Z,95550.00
2019-04-27T21:04:36.669Z,95550.00
2019-04-27T21:07:07.910Z,95555.00
2019-04-27T21:09:41.430Z,95543.00
2019-04-27T21:12:13.819Z,95539.00
2019-04-27T21:14:46.493Z,95558.00
2019-04-27T21:20:31.059Z,95562.00
2019-04-27T21:23:13.806Z,95558.00
2019-04-27T21:25:44.833Z,95542.00
2019-04-27T21:28:19.066Z,95542.00
2019-04-27T21:30:49.693Z,95541.00
2019-04-27T21:33:21.530Z,95543.00
2019-04-27T21:35:54.031Z,95544.00
2019-04-27T21:38:27.176Z,95550.00
2019-04-27T21:40:58.239Z,95558.00
2019-04-27T21:43:29.158Z,95563.00
2019-04-27T21:46:02.447Z,95553.00
2019-04-27T21:48:33.451Z,95564.00
2019-04-27T21:51:08.395Z,95563.00
2019-04-27T21:53:52.571Z,95572.00
2019-04-27T21:56:24.186Z,95567.00
2019-04-27T21:58:55.911Z,95574.00
2019-04-27T22:01:31.819Z,95579.00
2019-04-27T22:04:05.280Z,95581.00
2019-04-27T22:06:36.398Z,95593.00
2019-04-27T22:09:12.851Z,95600.00
2019-04-27T22:11:43.664Z,95587.00
2019-04-27T22:14:14.402Z,95588.00
2019-04-27T22:16:46.054Z,95590.00
2019-04-27T22:19:20.591Z,95603.00
2019-04-27T22:21:52.765Z,95607.00
2019-04-27T22:24:34.692Z,95624.00
2019-04-27T22:27:05.439Z,95621.00
2019-04-27T22:29:35.810Z,95620.00
2019-04-27T22:32:06.526Z,95624.00
2019-04-27T22:34:37.643Z,95627.00
2019-04-27T22:37:11.092Z,95640.00
2019-04-27T22:40:09.636Z,95631.00
2019-04-27T22:42:53.933Z,95641.00
2019-04-27T22:45:28.950Z,95642.00
2019-04-27T22:48:01.155Z,95648.00
2019-04-27T22:50:32.125Z,95645.00
2019-04-27T22:53:02.784Z,95640.00
2019-04-27T22:55:37.458Z,95640.00
2019-04-27T22:58:15.975Z,95633.00
2019-04-27T23:01:08.230Z,95644.00
2019-04-27T23:03:41.536Z,95641.00
2019-04-27T23:06:12.321Z,95661.00
2019-04-27T23:08:42.803Z,95645.00
2019-04-27T23:11:13.320Z,95650.00
2019-04-27T23:13:43.994Z,95646.00
2019-04-27T23:16:17.617Z,95645.00
2019-04-27T23:18:51.534Z,95635.00
2019-04-27T23:21:22.183Z,95647.00
2019-04-27T23:23:52.718Z,95635.00
2019-04-27T23:26:23.225Z,95638.00
2019-04-27T23:28:53.737Z,95631.00
2019-04-27T23:31:55.505Z,95628.00
2019-04-27T23:34:26.129Z,95637.00
2019-04-27T23:36:57.304Z,95636.00
2019-04-27T23:39:28.014Z,95650.00
2019-04-27T23:41:58.527Z,95648.00
2019-04-27T23:44:29.291Z,95646.00
2019-04-27T23:46:59.951Z,95648.00
2019-04-27T23:49:30.867Z,95637.00
2019-04-27T23:52:09.369Z,95647.00
2019-04-27T23:54:42.725Z,95646.00
2019-04-27T23:57:12.103Z,95638.00
2019-04-27T23:59:42.590Z,95652.00
